sensor_id;sensor_type;location;lat;lon;timestamp;temperature;humidity
46356;DHT22;32066;49.474;11.106;2022-09-23T00:00:58;11.00;87.30
46356;DHT22;32066;49.474;11.106;2022-09-23T00:03:26;11.00;87.40
46356;DHT22;32066;49.474;11.106;2022-09-23T00:05:57;11.00;87.30
46356;DHT22;32066;49.474;11.106;2022-09-23T00:08:24;11.00;87.30
46356;DHT22;32066;49.474;11.106;2022-09-23T00:10:51;10.90;87.70
46356;DHT22;32066;49.474;11.106;2022-09-23T00:13:17;11.00;87.40
46356;DHT22;32066;49.474;11.106;2022-09-23T00:15:44;10.90;87.10
46356;DHT22;32066;49.474;11.106;2022-09-23T00:18:12;10.90;87.40
46356;DHT22;32066;49.474;11.106;2022-09-23T00:20:40;10.90;87.30
46356;DHT22;32066;49.474;11.106;2022-09-23T00:23:07;10.80;87.60
46356;DHT22;32066;49.474;11.106;2022-09-23T00:25:34;10.80;87.60
46356;DHT22;32066;49.474;11.106;2022-09-23T00:28:01;10.80;87.20
46356;DHT22;32066;49.474;11.106;2022-09-23T00:30:28;10.70;87.40
46356;DHT22;32066;49.474;11.106;2022-09-23T00:32:55;10.70;87.30
46356;DHT22;32066;49.474;11.106;2022-09-23T00:35:22;10.60;87.20
46356;DHT22;32066;49.474;11.106;2022-09-23T00:37:51;10.60;87.50
46356;DHT22;32066;49.474;11.106;2022-09-23T00:40:17;10.60;87.50
46356;DHT22;32066;49.474;11.106;2022-09-23T00:42:46;10.50;87.40
46356;DHT22;32066;49.474;11.106;2022-09-23T00:45:13;10.50;87.60
46356;DHT22;32066;49.474;11.106;2022-09-23T00:47:44;10.50;87.80
46356;DHT22;32066;49.474;11.106;2022-09-23T00:50:16;10.40;87.80
46356;DHT22;32066;49.474;11.106;2022-09-23T00:52:46;10.50;87.70
46356;DHT22;32066;49.474;11.106;2022-09-23T00:55:20;10.40;87.70
46356;DHT22;32066;49.474;11.106;2022-09-23T00:57:51;10.40;87.80
46356;DHT22;32066;49.474;11.106;2022-09-23T01:00:21;10.40;87.80
46356;DHT22;32066;49.474;11.106;2022-09-23T01:02:48;10.30;88.30
46356;DHT22;32066;49.474;11.106;2022-09-23T01:05:17;10.30;88.10
46356;DHT22;32066;49.474;11.106;2022-09-23T01:07:44;10.30;88.10
46356;DHT22;32066;49.474;11.106;2022-09-23T01:10:12;10.30;88.20
46356;DHT22;32066;49.474;11.106;2022-09-23T01:13:01;10.30;88.40
46356;DHT22;32066;49.474;11.106;2022-09-23T01:15:37;10.30;88.40
46356;DHT22;32066;49.474;11.106;2022-09-23T01:18:12;10.20;88.60
46356;DHT22;32066;49.474;11.106;2022-09-23T01:20:55;10.20;88.60
46356;DHT22;32066;49.474;11.106;2022-09-23T01:23:50;10.20;88.30
46356;DHT22;32066;49.474;11.106;2022-09-23T01:26:39;10.10;88.50
46356;DHT22;32066;49.474;11.106;2022-09-23T01:29:26;10.10;88.70
46356;DHT22;32066;49.474;11.106;2022-09-23T01:32:01;10.10;88.70
46356;DHT22;32066;49.474;11.106;2022-09-23T01:34:32;10.10;88.50
46356;DHT22;32066;49.474;11.106;2022-09-23T01:37:06;10.20;88.60
46356;DHT22;32066;49.474;11.106;2022-09-23T01:39:37;10.20;88.50
46356;DHT22;32066;49.474;11.106;2022-09-23T01:42:14;10.20;87.90
46356;DHT22;32066;49.474;11.106;2022-09-23T01:44:47;10.10;87.60
46356;DHT22;32066;49.474;11.106;2022-09-23T01:47:19;10.10;87.70
46356;DHT22;32066;49.474;11.106;2022-09-23T01:49:51;10.00;87.80
46356;DHT22;32066;49.474;11.106;2022-09-23T01:52:24;10.00;88.30
46356;DHT22;32066;49.474;11.106;2022-09-23T01:54:56;10.00;88.50
46356;DHT22;32066;49.474;11.106;2022-09-23T01:57:29;10.00;88.30
46356;DHT22;32066;49.474;11.106;2022-09-23T02:00:03;9.90;88.20
46356;DHT22;32066;49.474;11.106;2022-09-23T02:02:40;9.90;88.00
46356;DHT22;32066;49.474;11.106;2022-09-23T02:05:17;9.80;88.40
46356;DHT22;32066;49.474;11.106;2022-09-23T02:07:50;9.90;88.80
46356;DHT22;32066;49.474;11.106;2022-09-23T02:10:21;9.90;89.00
46356;DHT22;32066;49.474;11.106;2022-09-23T02:12:53;9.90;89.20
46356;DHT22;32066;49.474;11.106;2022-09-23T02:15:23;9.80;89.50
46356;DHT22;32066;49.474;11.106;2022-09-23T02:17:56;9.80;90.00
46356;DHT22;32066;49.474;11.106;2022-09-23T02:20:28;9.90;88.90
46356;DHT22;32066;49.474;11.106;2022-09-23T02:22:58;9.90;88.80
46356;DHT22;32066;49.474;11.106;2022-09-23T02:25:30;9.80;88.80
46356;DHT22;32066;49.474;11.106;2022-09-23T02:28:05;9.80;88.70
46356;DHT22;32066;49.474;11.106;2022-09-23T02:30:38;9.80;88.70
46356;DHT22;32066;49.474;11.106;2022-09-23T02:33:15;9.80;88.60
46356;DHT22;32066;49.474;11.106;2022-09-23T02:35:48;9.70;88.60
46356;DHT22;32066;49.474;11.106;2022-09-23T02:38:21;9.60;88.70
46356;DHT22;32066;49.474;11.106;2022-09-23T02:40:53;9.60;88.80
46356;DHT22;32066;49.474;11.106;2022-09-23T02:43:26;9.60;89.10
46356;DHT22;32066;49.474;11.106;2022-09-23T02:45:56;9.60;89.30
46356;DHT22;32066;49.474;11.106;2022-09-23T02:48:28;9.50;89.20
46356;DHT22;32066;49.474;11.106;2022-09-23T02:50:57;9.50;89.00
46356;DHT22;32066;49.474;11.106;2022-09-23T02:53:27;9.50;89.00
46356;DHT22;32066;49.474;11.106;2022-09-23T02:55:54;9.50;89.00
46356;DHT22;32066;49.474;11.106;2022-09-23T02:58:21;9.40;89.00
46356;DHT22;32066;49.474;11.106;2022-09-23T03:00:58;9.40;89.50
46356;DHT22;32066;49.474;11.106;2022-09-23T03:03:37;9.40;89.70
46356;DHT22;32066;49.474;11.106;2022-09-23T03:06:12;9.40;89.90
46356;DHT22;32066;49.474;11.106;2022-09-23T03:08:46;9.30;90.00
46356;DHT22;32066;49.474;11.106;2022-09-23T03:11:15;9.30;90.10
46356;DHT22;32066;49.474;11.106;2022-09-23T03:14:02;9.40;89.80
46356;DHT22;32066;49.474;11.106;2022-09-23T03:16:35;9.40;89.40
46356;DHT22;32066;49.474;11.106;2022-09-23T03:19:16;9.40;89.40
46356;DHT22;32066;49.474;11.106;2022-09-23T03:21:48;9.40;89.40
46356;DHT22;32066;49.474;11.106;2022-09-23T03:24:17;9.30;89.70
46356;DHT22;32066;49.474;11.106;2022-09-23T03:26:46;9.30;89.70
46356;DHT22;32066;49.474;11.106;2022-09-23T03:29:15;9.30;89.80
46356;DHT22;32066;49.474;11.106;2022-09-23T03:31:44;9.20;89.70
46356;DHT22;32066;49.474;11.106;2022-09-23T03:34:15;9.30;90.00
46356;DHT22;32066;49.474;11.106;2022-09-23T03:36:49;9.20;90.20
46356;DHT22;32066;49.474;11.106;2022-09-23T03:39:27;9.20;90.70
46356;DHT22;32066;49.474;11.106;2022-09-23T03:41:57;9.20;90.80
46356;DHT22;32066;49.474;11.106;2022-09-23T03:44:27;9.20;90.90
46356;DHT22;32066;49.474;11.106;2022-09-23T03:46:58;9.10;91.10
46356;DHT22;32066;49.474;11.106;2022-09-23T03:49:27;9.00;91.50
46356;DHT22;32066;49.474;11.106;2022-09-23T03:51:57;8.90;91.60
46356;DHT22;32066;49.474;11.106;2022-09-23T03:54:24;8.90;91.50
46356;DHT22;32066;49.474;11.106;2022-09-23T03:56:54;9.00;91.20
46356;DHT22;32066;49.474;11.106;2022-09-23T03:59:22;9.10;90.90
46356;DHT22;32066;49.474;11.106;2022-09-23T04:01:49;9.20;90.70
46356;DHT22;32066;49.474;11.106;2022-09-23T04:04:16;9.10;90.60
46356;DHT22;32066;49.474;11.106;2022-09-23T04:06:44;9.10;90.70
46356;DHT22;32066;49.474;11.106;2022-09-23T04:09:11;9.10;90.70
46356;DHT22;32066;49.474;11.106;2022-09-23T04:11:38;9.10;90.60
46356;DHT22;32066;49.474;11.106;2022-09-23T04:14:05;9.00;90.50
46356;DHT22;32066;49.474;11.106;2022-09-23T04:16:32;9.00;90.60
46356;DHT22;32066;49.474;11.106;2022-09-23T04:18:59;9.00;90.50
46356;DHT22;32066;49.474;11.106;2022-09-23T04:21:26;8.90;90.70
46356;DHT22;32066;49.474;11.106;2022-09-23T04:23:56;9.00;90.50
46356;DHT22;32066;49.474;11.106;2022-09-23T04:26:22;9.00;90.40
46356;DHT22;32066;49.474;11.106;2022-09-23T04:28:49;8.90;90.60
46356;DHT22;32066;49.474;11.106;2022-09-23T04:31:16;8.90;90.40
46356;DHT22;32066;49.474;11.106;2022-09-23T04:33:43;8.90;90.30
46356;DHT22;32066;49.474;11.106;2022-09-23T04:36:10;8.80;90.30
46356;DHT22;32066;49.474;11.106;2022-09-23T04:38:37;8.80;90.30
46356;DHT22;32066;49.474;11.106;2022-09-23T04:41:07;8.80;90.30
46356;DHT22;32066;49.474;11.106;2022-09-23T04:43:34;8.80;90.30
46356;DHT22;32066;49.474;11.106;2022-09-23T04:46:02;8.80;90.30
46356;DHT22;32066;49.474;11.106;2022-09-23T04:48:29;8.80;90.40
46356;DHT22;32066;49.474;11.106;2022-09-23T04:51:01;8.80;90.50
46356;DHT22;32066;49.474;11.106;2022-09-23T04:53:28;8.80;90.60
46356;DHT22;32066;49.474;11.106;2022-09-23T04:56:00;8.80;90.60
46356;DHT22;32066;49.474;11.106;2022-09-23T04:58:28;8.70;90.60
46356;DHT22;32066;49.474;11.106;2022-09-23T05:00:55;8.70;90.60
46356;DHT22;32066;49.474;11.106;2022-09-23T05:03:22;8.70;90.60
46356;DHT22;32066;49.474;11.106;2022-09-23T05:05:49;8.70;90.60
46356;DHT22;32066;49.474;11.106;2022-09-23T05:08:17;8.70;90.80
46356;DHT22;32066;49.474;11.106;2022-09-23T05:10:43;8.70;90.80
46356;DHT22;32066;49.474;11.106;2022-09-23T05:13:10;8.70;90.80
46356;DHT22;32066;49.474;11.106;2022-09-23T05:15:38;8.80;90.90
46356;DHT22;32066;49.474;11.106;2022-09-23T05:18:05;9.00;91.10
46356;DHT22;32066;49.474;11.106;2022-09-23T05:20:32;9.10;90.90
46356;DHT22;32066;49.474;11.106;2022-09-23T05:22:59;9.10;90.70
46356;DHT22;32066;49.474;11.106;2022-09-23T05:25:26;9.10;90.40
46356;DHT22;32066;49.474;11.106;2022-09-23T05:27:53;9.00;90.40
46356;DHT22;32066;49.474;11.106;2022-09-23T05:30:20;9.00;90.40
46356;DHT22;32066;49.474;11.106;2022-09-23T05:32:48;9.00;90.50
46356;DHT22;32066;49.474;11.106;2022-09-23T05:35:15;8.90;90.70
46356;DHT22;32066;49.474;11.106;2022-09-23T05:37:41;8.90;90.80
46356;DHT22;32066;49.474;11.106;2022-09-23T05:40:08;8.90;91.10
46356;DHT22;32066;49.474;11.106;2022-09-23T05:42:35;8.90;91.10
46356;DHT22;32066;49.474;11.106;2022-09-23T05:45:03;8.90;91.20
46356;DHT22;32066;49.474;11.106;2022-09-23T05:47:30;8.90;91.20
46356;DHT22;32066;49.474;11.106;2022-09-23T05:49:58;8.90;91.50
46356;DHT22;32066;49.474;11.106;2022-09-23T05:52:25;9.00;91.40
46356;DHT22;32066;49.474;11.106;2022-09-23T05:54:52;9.00;91.30
46356;DHT22;32066;49.474;11.106;2022-09-23T05:57:19;9.00;91.20
46356;DHT22;32066;49.474;11.106;2022-09-23T05:59:46;9.10;91.40
46356;DHT22;32066;49.474;11.106;2022-09-23T06:02:13;9.10;91.50
46356;DHT22;32066;49.474;11.106;2022-09-23T06:04:40;9.20;91.30
46356;DHT22;32066;49.474;11.106;2022-09-23T06:07:08;9.30;91.30
46356;DHT22;32066;49.474;11.106;2022-09-23T06:09:35;9.40;91.30
46356;DHT22;32066;49.474;11.106;2022-09-23T06:12:02;9.40;91.20
46356;DHT22;32066;49.474;11.106;2022-09-23T06:14:30;9.50;91.10
46356;DHT22;32066;49.474;11.106;2022-09-23T06:16:57;9.50;91.40
46356;DHT22;32066;49.474;11.106;2022-09-23T06:19:23;9.60;91.20
46356;DHT22;32066;49.474;11.106;2022-09-23T06:21:50;9.50;91.40
46356;DHT22;32066;49.474;11.106;2022-09-23T06:24:18;9.60;91.20
46356;DHT22;32066;49.474;11.106;2022-09-23T06:26:47;9.70;91.20
46356;DHT22;32066;49.474;11.106;2022-09-23T06:29:13;9.70;91.30
46356;DHT22;32066;49.474;11.106;2022-09-23T06:31:40;9.80;91.40
46356;DHT22;32066;49.474;11.106;2022-09-23T06:34:09;9.90;91.30
46356;DHT22;32066;49.474;11.106;2022-09-23T06:36:36;10.00;91.20
46356;DHT22;32066;49.474;11.106;2022-09-23T06:39:03;10.10;91.00
46356;DHT22;32066;49.474;11.106;2022-09-23T06:41:31;10.20;91.00
46356;DHT22;32066;49.474;11.106;2022-09-23T06:43:58;10.30;91.10
46356;DHT22;32066;49.474;11.106;2022-09-23T06:46:25;10.30;91.10
46356;DHT22;32066;49.474;11.106;2022-09-23T06:48:52;10.40;91.00
46356;DHT22;32066;49.474;11.106;2022-09-23T06:51:19;10.50;91.00
46356;DHT22;32066;49.474;11.106;2022-09-23T06:53:46;10.60;90.90
46356;DHT22;32066;49.474;11.106;2022-09-23T06:56:13;10.80;90.80
46356;DHT22;32066;49.474;11.106;2022-09-23T06:58:42;10.90;90.70
46356;DHT22;32066;49.474;11.106;2022-09-23T07:01:10;11.10;90.60
46356;DHT22;32066;49.474;11.106;2022-09-23T07:03:38;11.20;90.50
46356;DHT22;32066;49.474;11.106;2022-09-23T07:06:06;11.30;90.30
46356;DHT22;32066;49.474;11.106;2022-09-23T07:08:33;11.40;90.20
46356;DHT22;32066;49.474;11.106;2022-09-23T07:11:02;11.50;90.20
46356;DHT22;32066;49.474;11.106;2022-09-23T07:13:30;11.60;90.20
46356;DHT22;32066;49.474;11.106;2022-09-23T07:15:59;11.70;90.10
46356;DHT22;32066;49.474;11.106;2022-09-23T07:18:28;11.90;90.10
46356;DHT22;32066;49.474;11.106;2022-09-23T07:20:55;12.00;90.00
46356;DHT22;32066;49.474;11.106;2022-09-23T07:23:23;12.20;89.80
46356;DHT22;32066;49.474;11.106;2022-09-23T07:25:51;12.30;89.70
46356;DHT22;32066;49.474;11.106;2022-09-23T07:28:18;12.40;89.50
46356;DHT22;32066;49.474;11.106;2022-09-23T07:30:45;12.50;89.10
46356;DHT22;32066;49.474;11.106;2022-09-23T07:33:14;12.60;89.00
46356;DHT22;32066;49.474;11.106;2022-09-23T07:35:41;12.80;88.70
46356;DHT22;32066;49.474;11.106;2022-09-23T07:38:08;12.90;88.70
46356;DHT22;32066;49.474;11.106;2022-09-23T07:40:36;13.10;88.10
46356;DHT22;32066;49.474;11.106;2022-09-23T07:43:04;13.20;87.70
46356;DHT22;32066;49.474;11.106;2022-09-23T07:45:31;13.40;87.50
46356;DHT22;32066;49.474;11.106;2022-09-23T07:47:59;13.40;87.50
46356;DHT22;32066;49.474;11.106;2022-09-23T07:50:27;13.50;86.90
46356;DHT22;32066;49.474;11.106;2022-09-23T07:52:56;13.70;86.30
46356;DHT22;32066;49.474;11.106;2022-09-23T07:55:23;13.80;85.50
46356;DHT22;32066;49.474;11.106;2022-09-23T07:57:50;14.00;85.10
46356;DHT22;32066;49.474;11.106;2022-09-23T08:00:17;14.20;85.00
46356;DHT22;32066;49.474;11.106;2022-09-23T08:02:44;14.30;84.40
46356;DHT22;32066;49.474;11.106;2022-09-23T08:05:10;14.50;84.10
46356;DHT22;32066;49.474;11.106;2022-09-23T08:07:39;14.60;83.50
46356;DHT22;32066;49.474;11.106;2022-09-23T08:10:07;14.70;82.80
46356;DHT22;32066;49.474;11.106;2022-09-23T08:12:34;14.80;82.40
46356;DHT22;32066;49.474;11.106;2022-09-23T08:15:01;14.90;82.00
46356;DHT22;32066;49.474;11.106;2022-09-23T08:17:28;14.80;81.90
46356;DHT22;32066;49.474;11.106;2022-09-23T08:19:55;14.70;80.90
46356;DHT22;32066;49.474;11.106;2022-09-23T08:22:22;14.90;81.30
46356;DHT22;32066;49.474;11.106;2022-09-23T08:24:50;15.00;80.50
46356;DHT22;32066;49.474;11.106;2022-09-23T08:27:17;15.20;80.40
46356;DHT22;32066;49.474;11.106;2022-09-23T08:29:44;15.10;81.00
46356;DHT22;32066;49.474;11.106;2022-09-23T08:32:11;15.40;80.80
46356;DHT22;32066;49.474;11.106;2022-09-23T08:34:38;15.50;79.50
46356;DHT22;32066;49.474;11.106;2022-09-23T08:37:08;15.70;78.90
46356;DHT22;32066;49.474;11.106;2022-09-23T08:39:36;15.80;78.60
46356;DHT22;32066;49.474;11.106;2022-09-23T08:42:13;16.00;78.40
46356;DHT22;32066;49.474;11.106;2022-09-23T08:44:46;16.20;77.40
46356;DHT22;32066;49.474;11.106;2022-09-23T08:47:18;16.30;78.00
46356;DHT22;32066;49.474;11.106;2022-09-23T08:49:53;16.40;75.30
46356;DHT22;32066;49.474;11.106;2022-09-23T08:52:25;16.50;74.70
46356;DHT22;32066;49.474;11.106;2022-09-23T08:54:54;16.60;74.90
46356;DHT22;32066;49.474;11.106;2022-09-23T08:57:30;16.60;72.30
46356;DHT22;32066;49.474;11.106;2022-09-23T08:59:59;16.70;72.60
46356;DHT22;32066;49.474;11.106;2022-09-23T09:02:27;16.70;71.70
46356;DHT22;32066;49.474;11.106;2022-09-23T09:04:58;16.80;71.70
46356;DHT22;32066;49.474;11.106;2022-09-23T09:07:29;16.80;70.60
46356;DHT22;32066;49.474;11.106;2022-09-23T09:10:01;16.90;70.90
46356;DHT22;32066;49.474;11.106;2022-09-23T09:12:38;17.10;70.50
46356;DHT22;32066;49.474;11.106;2022-09-23T09:15:11;17.20;69.70
46356;DHT22;32066;49.474;11.106;2022-09-23T09:17:45;17.30;68.80
46356;DHT22;32066;49.474;11.106;2022-09-23T09:20:21;17.40;69.00
46356;DHT22;32066;49.474;11.106;2022-09-23T09:22:50;17.50;69.00
46356;DHT22;32066;49.474;11.106;2022-09-23T09:25:34;17.60;68.10
46356;DHT22;32066;49.474;11.106;2022-09-23T09:28:12;17.80;67.50
46356;DHT22;32066;49.474;11.106;2022-09-23T09:30:44;17.80;65.00
46356;DHT22;32066;49.474;11.106;2022-09-23T09:33:14;17.80;66.30
46356;DHT22;32066;49.474;11.106;2022-09-23T09:38:34;18.10;65.00
46356;DHT22;32066;49.474;11.106;2022-09-23T09:41:09;18.10;63.50
46356;DHT22;32066;49.474;11.106;2022-09-23T09:43:38;18.10;64.50
46356;DHT22;32066;49.474;11.106;2022-09-23T09:46:12;18.20;64.20
46356;DHT22;32066;49.474;11.106;2022-09-23T09:48:49;18.30;64.00
46356;DHT22;32066;49.474;11.106;2022-09-23T09:51:20;18.40;62.90
46356;DHT22;32066;49.474;11.106;2022-09-23T09:53:48;18.50;62.30
46356;DHT22;32066;49.474;11.106;2022-09-23T09:56:17;18.60;62.20
46356;DHT22;32066;49.474;11.106;2022-09-23T09:58:51;18.70;61.60
46356;DHT22;32066;49.474;11.106;2022-09-23T10:01:21;18.80;59.50
46356;DHT22;32066;49.474;11.106;2022-09-23T10:03:50;18.80;59.10
46356;DHT22;32066;49.474;11.106;2022-09-23T10:06:20;18.80;58.70
46356;DHT22;32066;49.474;11.106;2022-09-23T10:09:10;18.90;58.80
46356;DHT22;32066;49.474;11.106;2022-09-23T10:11:39;18.80;57.90
46356;DHT22;32066;49.474;11.106;2022-09-23T10:14:12;18.50;57.60
46356;DHT22;32066;49.474;11.106;2022-09-23T10:16:42;18.40;59.10
46356;DHT22;32066;49.474;11.106;2022-09-23T10:19:13;18.50;59.80
46356;DHT22;32066;49.474;11.106;2022-09-23T10:21:42;18.60;59.10
46356;DHT22;32066;49.474;11.106;2022-09-23T10:24:20;18.70;58.60
46356;DHT22;32066;49.474;11.106;2022-09-23T10:26:52;18.60;57.10
46356;DHT22;32066;49.474;11.106;2022-09-23T10:29:27;18.50;58.90
46356;DHT22;32066;49.474;11.106;2022-09-23T10:32:18;18.50;58.40
46356;DHT22;32066;49.474;11.106;2022-09-23T10:34:49;18.40;58.60
46356;DHT22;32066;49.474;11.106;2022-09-23T10:37:20;18.60;59.50
46356;DHT22;32066;49.474;11.106;2022-09-23T10:39:50;18.80;59.50
46356;DHT22;32066;49.474;11.106;2022-09-23T10:42:49;19.10;58.50
46356;DHT22;32066;49.474;11.106;2022-09-23T10:45:38;19.10;57.20
46356;DHT22;32066;49.474;11.106;2022-09-23T10:48:31;18.80;57.20
46356;DHT22;32066;49.474;11.106;2022-09-23T10:51:03;18.80;57.10
46356;DHT22;32066;49.474;11.106;2022-09-23T10:53:40;19.00;58.70
46356;DHT22;32066;49.474;11.106;2022-09-23T10:56:18;19.20;56.30
46356;DHT22;32066;49.474;11.106;2022-09-23T10:59:09;19.20;56.40
46356;DHT22;32066;49.474;11.106;2022-09-23T11:01:49;19.30;56.40
46356;DHT22;32066;49.474;11.106;2022-09-23T11:04:24;19.50;56.60
46356;DHT22;32066;49.474;11.106;2022-09-23T11:07:09;19.70;55.70
46356;DHT22;32066;49.474;11.106;2022-09-23T11:09:55;19.80;55.90
46356;DHT22;32066;49.474;11.106;2022-09-23T11:12:31;20.10;54.90
46356;DHT22;32066;49.474;11.106;2022-09-23T11:15:25;20.30;55.00
46356;DHT22;32066;49.474;11.106;2022-09-23T11:18:30;20.60;54.50
46356;DHT22;32066;49.474;11.106;2022-09-23T11:21:12;20.30;51.00
46356;DHT22;32066;49.474;11.106;2022-09-23T11:23:57;19.90;51.30
46356;DHT22;32066;49.474;11.106;2022-09-23T11:26:35;20.10;52.80
46356;DHT22;32066;49.474;11.106;2022-09-23T11:29:16;20.40;53.30
46356;DHT22;32066;49.474;11.106;2022-09-23T11:31:53;20.60;53.40
46356;DHT22;32066;49.474;11.106;2022-09-23T11:34:39;20.60;52.30
46356;DHT22;32066;49.474;11.106;2022-09-23T11:37:12;20.50;52.40
46356;DHT22;32066;49.474;11.106;2022-09-23T11:39:43;20.60;51.60
46356;DHT22;32066;49.474;11.106;2022-09-23T11:42:19;20.60;51.90
46356;DHT22;32066;49.474;11.106;2022-09-23T11:44:51;20.70;51.80
46356;DHT22;32066;49.474;11.106;2022-09-23T11:47:25;20.50;50.40
46356;DHT22;32066;49.474;11.106;2022-09-23T11:49:58;20.50;50.70
46356;DHT22;32066;49.474;11.106;2022-09-23T11:52:30;20.70;51.10
46356;DHT22;32066;49.474;11.106;2022-09-23T11:55:02;20.80;50.10
46356;DHT22;32066;49.474;11.106;2022-09-23T11:57:35;20.90;50.60
46356;DHT22;32066;49.474;11.106;2022-09-23T12:00:06;20.90;51.00
46356;DHT22;32066;49.474;11.106;2022-09-23T12:02:51;20.90;50.50
46356;DHT22;32066;49.474;11.106;2022-09-23T12:05:23;21.00;50.80
46356;DHT22;32066;49.474;11.106;2022-09-23T12:07:54;20.70;49.10
46356;DHT22;32066;49.474;11.106;2022-09-23T12:10:29;20.70;48.20
46356;DHT22;32066;49.474;11.106;2022-09-23T12:13:05;20.50;48.70
46356;DHT22;32066;49.474;11.106;2022-09-23T12:15:43;20.50;48.70
46356;DHT22;32066;49.474;11.106;2022-09-23T12:18:29;20.50;48.30
46356;DHT22;32066;49.474;11.106;2022-09-23T12:21:22;20.50;49.50
46356;DHT22;32066;49.474;11.106;2022-09-23T12:24:12;20.60;49.30
46356;DHT22;32066;49.474;11.106;2022-09-23T12:26:44;20.70;48.40
46356;DHT22;32066;49.474;11.106;2022-09-23T12:29:14;20.50;47.80
46356;DHT22;32066;49.474;11.106;2022-09-23T12:31:42;20.50;48.10
46356;DHT22;32066;49.474;11.106;2022-09-23T12:34:20;20.70;48.90
46356;DHT22;32066;49.474;11.106;2022-09-23T12:36:49;20.80;49.20
46356;DHT22;32066;49.474;11.106;2022-09-23T12:39:28;20.80;49.30
46356;DHT22;32066;49.474;11.106;2022-09-23T12:41:58;21.00;49.60
46356;DHT22;32066;49.474;11.106;2022-09-23T12:44:29;21.20;49.70
46356;DHT22;32066;49.474;11.106;2022-09-23T12:50:49;20.70;48.40
46356;DHT22;32066;49.474;11.106;2022-09-23T12:53:52;20.90;48.80
46356;DHT22;32066;49.474;11.106;2022-09-23T12:56:25;20.90;48.10
46356;DHT22;32066;49.474;11.106;2022-09-23T12:59:22;20.90;48.30
46356;DHT22;32066;49.474;11.106;2022-09-23T13:01:50;21.20;47.40
46356;DHT22;32066;49.474;11.106;2022-09-23T13:04:43;21.40;47.30
46356;DHT22;32066;49.474;11.106;2022-09-23T13:07:30;21.50;46.60
46356;DHT22;32066;49.474;11.106;2022-09-23T13:10:07;21.80;46.50
46356;DHT22;32066;49.474;11.106;2022-09-23T13:12:37;21.90;47.10
46356;DHT22;32066;49.474;11.106;2022-09-23T13:15:15;22.10;47.10
46356;DHT22;32066;49.474;11.106;2022-09-23T13:17:43;22.30;45.90
46356;DHT22;32066;49.474;11.106;2022-09-23T13:20:33;22.30;44.40
46356;DHT22;32066;49.474;11.106;2022-09-23T13:23:22;22.20;46.00
46356;DHT22;32066;49.474;11.106;2022-09-23T13:25:52;22.40;45.10
46356;DHT22;32066;49.474;11.106;2022-09-23T13:28:30;22.50;44.50
46356;DHT22;32066;49.474;11.106;2022-09-23T13:31:03;22.30;44.40
46356;DHT22;32066;49.474;11.106;2022-09-23T13:33:36;22.60;45.50
46356;DHT22;32066;49.474;11.106;2022-09-23T13:36:10;22.80;45.00
46356;DHT22;32066;49.474;11.106;2022-09-23T13:38:37;22.80;44.40
46356;DHT22;32066;49.474;11.106;2022-09-23T13:41:09;22.90;44.40
46356;DHT22;32066;49.474;11.106;2022-09-23T13:43:40;23.20;45.00
46356;DHT22;32066;49.474;11.106;2022-09-23T13:46:10;23.30;43.40
46356;DHT22;32066;49.474;11.106;2022-09-23T13:48:38;23.40;44.50
46356;DHT22;32066;49.474;11.106;2022-09-23T13:51:09;23.60;45.60
46356;DHT22;32066;49.474;11.106;2022-09-23T13:53:37;23.70;44.80
46356;DHT22;32066;49.474;11.106;2022-09-23T13:56:11;23.90;45.40
46356;DHT22;32066;49.474;11.106;2022-09-23T13:58:38;24.00;45.20
46356;DHT22;32066;49.474;11.106;2022-09-23T14:01:07;24.10;44.00
46356;DHT22;32066;49.474;11.106;2022-09-23T14:03:36;24.00;43.10
46356;DHT22;32066;49.474;11.106;2022-09-23T14:06:07;23.40;41.90
46356;DHT22;32066;49.474;11.106;2022-09-23T14:08:37;23.40;42.40
46356;DHT22;32066;49.474;11.106;2022-09-23T14:11:05;23.50;43.70
46356;DHT22;32066;49.474;11.106;2022-09-23T14:13:39;23.70;42.80
46356;DHT22;32066;49.474;11.106;2022-09-23T14:16:09;23.50;42.50
46356;DHT22;32066;49.474;11.106;2022-09-23T14:18:38;23.40;42.30
46356;DHT22;32066;49.474;11.106;2022-09-23T14:21:10;23.30;42.30
46356;DHT22;32066;49.474;11.106;2022-09-23T14:23:51;23.30;42.80
46356;DHT22;32066;49.474;11.106;2022-09-23T14:26:18;23.40;43.50
46356;DHT22;32066;49.474;11.106;2022-09-23T14:28:47;23.30;42.20
46356;DHT22;32066;49.474;11.106;2022-09-23T14:31:14;23.50;43.40
46356;DHT22;32066;49.474;11.106;2022-09-23T14:33:41;23.60;43.20
46356;DHT22;32066;49.474;11.106;2022-09-23T14:36:10;23.80;43.90
46356;DHT22;32066;49.474;11.106;2022-09-23T14:39:03;23.90;43.70
46356;DHT22;32066;49.474;11.106;2022-09-23T14:41:33;24.20;44.10
46356;DHT22;32066;49.474;11.106;2022-09-23T14:44:02;24.20;44.10
46356;DHT22;32066;49.474;11.106;2022-09-23T14:46:31;24.30;43.90
46356;DHT22;32066;49.474;11.106;2022-09-23T14:49:03;24.20;43.00
46356;DHT22;32066;49.474;11.106;2022-09-23T14:51:40;23.90;42.50
46356;DHT22;32066;49.474;11.106;2022-09-23T14:54:30;23.70;43.20
46356;DHT22;32066;49.474;11.106;2022-09-23T14:56:58;23.90;42.50
46356;DHT22;32066;49.474;11.106;2022-09-23T14:59:31;23.90;42.80
46356;DHT22;32066;49.474;11.106;2022-09-23T15:01:59;23.80;42.20
46356;DHT22;32066;49.474;11.106;2022-09-23T15:04:32;23.60;43.20
46356;DHT22;32066;49.474;11.106;2022-09-23T15:07:04;23.50;43.50
46356;DHT22;32066;49.474;11.106;2022-09-23T15:09:37;23.60;42.90
46356;DHT22;32066;49.474;11.106;2022-09-23T15:12:09;23.30;43.30
46356;DHT22;32066;49.474;11.106;2022-09-23T15:14:40;23.10;43.40
46356;DHT22;32066;49.474;11.106;2022-09-23T15:17:26;23.10;43.90
46356;DHT22;32066;49.474;11.106;2022-09-23T15:19:59;23.00;44.00
46356;DHT22;32066;49.474;11.106;2022-09-23T15:22:27;22.90;44.90
46356;DHT22;32066;49.474;11.106;2022-09-23T15:25:07;23.00;44.70
46356;DHT22;32066;49.474;11.106;2022-09-23T15:27:34;22.80;44.70
46356;DHT22;32066;49.474;11.106;2022-09-23T15:30:18;22.80;45.20
46356;DHT22;32066;49.474;11.106;2022-09-23T15:32:45;22.90;44.80
46356;DHT22;32066;49.474;11.106;2022-09-23T15:35:13;22.90;44.80
46356;DHT22;32066;49.474;11.106;2022-09-23T15:37:41;22.80;44.80
46356;DHT22;32066;49.474;11.106;2022-09-23T15:40:15;22.70;45.20
46356;DHT22;32066;49.474;11.106;2022-09-23T15:42:44;22.70;45.40
46356;DHT22;32066;49.474;11.106;2022-09-23T15:45:19;22.80;45.00
46356;DHT22;32066;49.474;11.106;2022-09-23T15:47:47;22.80;45.30
46356;DHT22;32066;49.474;11.106;2022-09-23T15:50:15;22.80;45.10
46356;DHT22;32066;49.474;11.106;2022-09-23T15:52:42;22.80;45.30
46356;DHT22;32066;49.474;11.106;2022-09-23T15:55:14;22.80;45.40